createdAt,value
2023-01-23T00:04:15.528Z,74.25
2023-01-23T00:09:36.113Z,74.30
2023-01-23T00:14:56.877Z,73.78
2023-01-23T00:20:17.934Z,74.43
2023-01-23T00:25:39.258Z,74.15
2023-01-23T00:31:10.338Z,73.98
2023-01-23T00:36:34.613Z,74.60
2023-01-23T00:41:55.819Z,74.15
2023-01-23T00:47:18.350Z,74.50
2023-01-23T00:52:39.203Z,74.30
2023-01-23T00:58:00.339Z,74.17
2023-01-23T01:03:21.514Z,74.14
2023-01-23T01:08:42.996Z,73.96
2023-01-23T01:14:05.156Z,74.14
2023-01-23T01:19:28.256Z,74.04
2023-01-23T01:24:49.152Z,73.79
2023-01-23T01:30:10.921Z,74.32
2023-01-23T01:35:32.470Z,74.13
2023-01-23T01:40:53.673Z,73.92
2023-01-23T01:46:23.695Z,74.24
2023-01-23T01:51:50.314Z,74.13
2023-01-23T01:57:21.396Z,74.49
2023-01-23T02:02:55.462Z,74.60
2023-01-23T02:08:27.379Z,74.67
2023-01-23T02:13:48.090Z,74.99
2023-01-23T02:19:35.820Z,75.20
2023-01-23T02:25:15.284Z,75.39
2023-01-23T02:30:40.225Z,74.93
2023-01-23T02:36:02.726Z,74.91
2023-01-23T02:41:28.777Z,74.77
2023-01-23T02:46:49.717Z,75.32
2023-01-23T02:52:10.581Z,74.95
2023-01-23T02:57:31.117Z,74.86
2023-01-23T03:02:52.024Z,74.54
2023-01-23T03:08:12.956Z,74.67
2023-01-23T03:13:33.783Z,74.93
2023-01-23T03:18:55.227Z,74.85
2023-01-23T03:24:16.482Z,74.68
2023-01-23T03:29:56.112Z,75.15
2023-01-23T03:35:18.034Z,75.14
2023-01-23T03:40:57.598Z,75.26
2023-01-23T03:46:19.364Z,75.35
2023-01-23T03:51:40.208Z,75.11
2023-01-23T03:57:00.846Z,75.24
2023-01-23T04:02:55.081Z,75.31
2023-01-23T04:08:16.652Z,75.62
2023-01-23T04:13:38.540Z,75.73
2023-01-23T04:18:59.267Z,75.62
2023-01-23T04:24:20.473Z,75.36
2023-01-23T04:29:42.280Z,75.18
2023-01-23T04:35:03.885Z,74.84
2023-01-23T04:40:26.249Z,75.28
2023-01-23T04:45:52.732Z,75.35
2023-01-23T04:51:28.953Z,75.48
2023-01-23T04:56:50.210Z,75.51
2023-01-23T05:02:12.944Z,75.36
2023-01-23T05:07:37.111Z,75.58
2023-01-23T05:13:01.335Z,75.58
2023-01-23T05:18:21.974Z,75.73
2023-01-23T05:23:42.655Z,75.61
2023-01-23T05:29:03.863Z,75.61
2023-01-23T05:34:25.609Z,75.45
2023-01-23T05:39:46.170Z,75.40
2023-01-23T05:45:07.799Z,76.08
2023-01-23T05:50:34.546Z,75.52
2023-01-23T05:55:56.299Z,75.70
2023-01-23T06:01:18.701Z,75.10
2023-01-23T06:06:51.692Z,75.45
2023-01-23T06:12:12.924Z,75.12
2023-01-23T06:17:33.893Z,75.38
2023-01-23T06:22:55.103Z,75.33
2023-01-23T06:28:15.775Z,75.10
2023-01-23T06:33:39.008Z,75.26
2023-01-23T06:39:03.646Z,75.36
2023-01-23T06:44:38.106Z,75.36
2023-01-23T06:50:02.070Z,74.63
2023-01-23T06:55:24.894Z,75.00
2023-01-23T07:00:46.031Z,75.04
2023-01-23T07:06:24.770Z,74.97
2023-01-23T07:11:46.102Z,74.87
2023-01-23T07:17:07.083Z,75.13
2023-01-23T07:22:28.894Z,75.14
2023-01-23T07:27:49.650Z,75.40
2023-01-23T07:33:11.984Z,75.35
2023-01-23T07:38:33.067Z,75.32
2023-01-23T07:43:54.098Z,75.56
2023-01-23T07:49:15.142Z,75.17
2023-01-23T07:54:36.143Z,75.74
2023-01-23T07:59:58.316Z,79.42
2023-01-23T08:05:19.257Z,78.76
2023-01-23T08:10:39.939Z,75.35
2023-01-23T08:16:00.760Z,75.01
2023-01-23T08:21:21.932Z,75.24
2023-01-23T08:26:43.469Z,75.17
2023-01-23T08:32:04.732Z,75.46
2023-01-23T08:37:26.020Z,75.37
2023-01-23T08:42:46.897Z,75.45
2023-01-23T08:48:08.842Z,75.37
2023-01-23T08:53:30.172Z,75.36
2023-01-23T08:58:51.840Z,75.44
2023-01-23T09:04:12.948Z,75.60
2023-01-23T09:09:33.874Z,75.85
2023-01-23T09:14:54.811Z,75.72
2023-01-23T09:20:16.148Z,76.06
2023-01-23T09:25:38.081Z,75.76
2023-01-23T09:31:03.966Z,76.02
2023-01-23T09:36:37.696Z,75.74
2023-01-23T09:42:08.455Z,75.85
2023-01-23T09:47:39.091Z,75.64
2023-01-23T09:53:08.495Z,75.64
2023-01-23T09:58:43.606Z,76.18
2023-01-23T10:04:05.434Z,75.81
2023-01-23T10:09:37.816Z,75.88
2023-01-23T10:15:07.053Z,75.61
2023-01-23T10:20:56.720Z,75.96
2023-01-23T10:26:31.730Z,76.28
2023-01-23T10:31:57.319Z,76.08
2023-01-23T10:37:42.853Z,75.94
2023-01-23T10:43:04.265Z,76.40
2023-01-23T10:48:27.992Z,76.12
2023-01-23T10:54:04.563Z,76.29
2023-01-23T10:59:29.946Z,75.98
2023-01-23T11:04:54.526Z,76.26
2023-01-23T11:10:23.320Z,76.00
2023-01-23T11:15:48.975Z,75.68
2023-01-23T11:21:33.202Z,75.85
2023-01-23T11:27:20.977Z,76.12
2023-01-23T11:32:55.232Z,76.30
2023-01-23T11:38:27.226Z,76.24
2023-01-23T11:43:50.799Z,75.70
2023-01-23T11:49:45.547Z,76.06
2023-01-23T11:55:12.431Z,76.29
2023-01-23T12:01:07.920Z,76.19
2023-01-23T12:06:47.580Z,75.83
2023-01-23T12:12:42.930Z,76.14
2023-01-23T12:18:03.913Z,75.97
2023-01-23T12:23:49.445Z,78.02
2023-01-23T12:29:22.361Z,76.01
2023-01-23T12:34:49.128Z,75.94
2023-01-23T12:40:38.672Z,75.84
2023-01-23T12:46:07.492Z,76.28
2023-01-23T12:51:39.211Z,76.35
2023-01-23T12:57:02.008Z,78.15
2023-01-23T13:02:39.092Z,76.24
2023-01-23T13:08:23.205Z,76.49
2023-01-23T13:13:46.561Z,76.11
2023-01-23T13:20:05.792Z,76.04
2023-01-23T13:25:26.557Z,75.46
2023-01-23T13:31:00.284Z,75.61
2023-01-23T13:36:26.058Z,75.98
2023-01-23T13:42:09.233Z,76.38
2023-01-23T14:22:05.594Z,76.19
2023-01-23T14:27:54.346Z,76.25
2023-01-23T14:33:18.202Z,76.51
2023-01-23T14:38:39.151Z,76.26
2023-01-23T14:44:00.892Z,76.73
2023-01-23T14:49:29.814Z,76.64
2023-01-23T14:54:54.085Z,76.09
2023-01-23T15:00:19.296Z,76.65
2023-01-23T15:05:41.754Z,76.26
2023-01-23T15:11:04.677Z,76.37
2023-01-23T15:16:34.227Z,76.28
2023-01-23T15:22:07.466Z,76.37
2023-01-23T15:27:35.246Z,76.13
2023-01-23T15:33:07.022Z,76.33
2023-01-23T15:38:28.970Z,76.45
2023-01-23T15:43:49.914Z,76.51
2023-01-23T15:49:23.671Z,76.53
2023-01-23T15:54:46.512Z,76.71
2023-01-23T16:00:25.116Z,77.12
2023-01-23T16:05:46.093Z,76.56
2023-01-23T16:11:06.999Z,76.33
2023-01-23T16:16:28.323Z,76.23
2023-01-23T16:22:03.092Z,76.55
2023-01-23T16:27:27.820Z,77.14
2023-01-23T16:32:49.494Z,76.41
2023-01-23T16:38:29.758Z,76.77
2023-01-23T16:43:50.772Z,76.65
2023-01-23T16:49:12.926Z,76.36
2023-01-23T16:54:35.473Z,76.74
2023-01-23T16:59:56.613Z,76.78
2023-01-23T17:05:18.095Z,76.89
2023-01-23T17:10:46.143Z,77.27
2023-01-23T17:16:18.753Z,76.57
2023-01-23T17:21:47.847Z,77.10
2023-01-23T17:27:08.790Z,77.10
2023-01-23T17:32:35.453Z,76.62
2023-01-23T17:37:58.002Z,77.69
2023-01-23T17:43:21.510Z,76.88
2023-01-23T17:48:42.392Z,76.80
2023-01-23T17:54:03.099Z,76.72
2023-01-23T17:59:23.711Z,76.44
2023-01-23T18:04:44.390Z,76.65
2023-01-23T18:10:06.877Z,76.98
2023-01-23T18:15:54.034Z,76.93
2023-01-23T18:21:18.005Z,76.70
2023-01-23T18:26:50.938Z,76.75
2023-01-23T18:32:24.298Z,77.14
2023-01-23T18:37:53.993Z,77.20
2023-01-23T18:43:35.614Z,77.21
2023-01-23T18:48:56.874Z,77.37
2023-01-23T18:54:50.278Z,76.97
2023-01-23T19:00:20.052Z,76.78
2023-01-23T19:05:41.319Z,76.97
2023-01-23T19:11:14.830Z,76.91
2023-01-23T19:16:43.437Z,76.99
2023-01-23T19:22:12.668Z,77.35
2023-01-23T19:27:34.605Z,77.13
2023-01-23T19:32:55.515Z,76.89
2023-01-23T19:38:16.180Z,77.02
2023-01-23T19:43:38.954Z,76.78
2023-01-23T19:49:02.233Z,77.15
2023-01-23T19:54:24.479Z,77.20
2023-01-23T19:59:45.063Z,77.08
2023-01-23T20:05:06.182Z,76.95
2023-01-23T20:10:26.926Z,77.15
2023-01-23T20:15:50.059Z,76.98
2023-01-23T20:21:11.283Z,77.83
2023-01-23T20:26:32.057Z,77.12
2023-01-23T20:31:57.431Z,76.99
2023-01-23T20:37:18.376Z,76.93
2023-01-23T20:42:40.680Z,77.09
2023-01-23T20:48:02.004Z,77.33
2023-01-23T20:53:34.903Z,77.15
2023-01-23T20:59:15.255Z,76.71
2023-01-23T21:04:36.956Z,77.28
2023-01-23T21:09:57.773Z,77.00
2023-01-23T21:15:18.605Z,76.99
2023-01-23T21:20:40.119Z,77.48
2023-01-23T21:26:02.761Z,77.15
2023-01-23T21:31:26.918Z,77.04
2023-01-23T21:36:48.235Z,77.15
2023-01-23T21:42:09.207Z,77.59
2023-01-23T21:47:30.009Z,77.25
2023-01-23T21:52:50.704Z,77.18
2023-01-23T21:58:11.404Z,77.14
2023-01-23T22:03:35.853Z,77.22
2023-01-23T22:08:57.790Z,77.23
2023-01-23T22:14:19.297Z,77.03
2023-01-23T22:19:40.087Z,77.45
2023-01-23T22:25:00.958Z,77.38
2023-01-23T22:30:21.706Z,77.13
2023-01-23T22:35:43.392Z,77.74
2023-01-23T22:41:06.061Z,77.55
2023-01-23T22:46:27.924Z,77.67
2023-01-23T22:51:49.068Z,77.20
2023-01-23T22:57:10.017Z,77.41
2023-01-23T23:02:31.457Z,77.53
2023-01-23T23:07:52.332Z,77.47
2023-01-23T23:13:13.093Z,78.04
2023-01-23T23:18:34.139Z,78.14
2023-01-23T23:23:59.967Z,77.78
2023-01-23T23:29:20.998Z,77.63
2023-01-23T23:34:41.536Z,77.76
2023-01-23T23:40:02.465Z,77.78
2023-01-23T23:45:23.627Z,77.77
2023-01-23T23:50:44.618Z,77.67
2023-01-23T23:56:06.197Z,77.88
